메인 페이지
METAR-TAF:

METAR-TAF

공항 :

누악쇼트, 모리타니

위도: 18-18-36N, 경도: 015-58-11W, 고도: 3m

현재 날씨관측

예보는 27분 전, 19:00시(UTC)에 발표되었습니다.
북서13kt
온도 31°C
습도 66%
기압 1010 hPa
시정: 8000m

METAR: GQNO 201900Z 32013KT 8000 NSC 31/24 Q1010 NOSIG

시각: 19:27 (19:27 UTC)

예보

예보는 2 시간 27분 전, 17:00시(UTC)에 발표되었습니다.
예보 대상 시간: 20일 18시부터 21일 24시까지 (UTC)
북북서13kt
시정: 8000m
일시적
21일 10시부터 21일 15시까지 (UTC)
북동12kt

TAF: GQNO 201700Z 2018/2124 34013KT 8000 NSC TEMPO 2110/2115 05012KT

4,000개 이상의 공항 관측 자료 및 예보 (METAR 및 TAF 보고).

지도상에서 검색 가능한 기상관측소가 노란 점과 빨간 점으로 표시되어 있습니다.

기상관측소 명을 보려면 표시 위로 마우스를 이동하세요.

날씨 관측과 예보를 보려면 클릭하세요.

지도 변경 : 확대하려면 엑스 표시가 있는 녹색 버튼, 축소하려면 빼기 표시가 있는 녹색 버튼, 다음 페이지의 지도를 보려면 녹색 화살표를 클릭하세요.


METAR-TAF: